Time;durP1;ratioP1;P1;durP2;ratioP2;P2;SDS_P1;SDS_P2;PMS_P1;PMS_P2;Temp;Humidity;BMP_temperature;BMP_pressure;BME280_temperature;BME280_humidity;BME280_pressure;Samples;Min_cycle;Max_cycle;Signal;HPM_P1;HPM_P2
2022/03/19 00:00:32;;;;;;;29.8;51.8;;;;;;;-2.8;57;101150;;;;
2022/03/19 00:11:32;;;;;;;29.8;51.8;;;;;;;-3.1;59;101140;;;;
2022/03/19 00:22:32;;;;;;;29.8;51.8;;;;;;;-3.4;59;101130;;;;
2022/03/19 00:32:32;;;;;;;36.9;62.9;;;;;;;-3.6;60.1;101120;;;;
2022/03/19 00:42:32;;;;;;;36.9;62.9;;;;;;;-3.7;58.9;101120;;;;
2022/03/19 00:52:32;;;;;;;36.9;62.9;;;;;;;-3;58.1;101110;;;;
2022/03/19 01:02:32;;;;;;;26;43;;;;;;;-3.4;57.1;101110;;;;
2022/03/19 01:13:32;;;;;;;26;43;;;;;;;-3.8;59.7;101100;;;;
2022/03/19 01:24:32;;;;;;;26;43;;;;;;;-4;59.7;101100;;;;
2022/03/19 01:34:32;;;;;;;25.7;45.2;;;;;;;-4.2;60.3;101090;;;;
2022/03/19 01:44:32;;;;;;;25.7;45.2;;;;;;;-4.4;60.2;101090;;;;
2022/03/19 01:55:32;;;;;;;27.5;54.6;;;;;;;-4.7;62.7;101080;;;;
2022/03/19 02:05:32;;;;;;;27.5;54.6;;;;;;;-4.9;64.9;101060;;;;
2022/03/19 02:15:32;;;;;;;27.5;54.6;;;;;;;-5.1;64.2;101070;;;;
2022/03/19 02:25:35;;;;;;;28;48.5;;;;;;;-5;64.8;101060;;;;
2022/03/19 02:36:32;;;;;;;28;48.5;;;;;;;-4.8;63;101070;;;;
2022/03/19 02:47:32;;;;;;;28;48.5;;;;;;;-4.9;62.2;101070;;;;
2022/03/19 02:58:32;;;;;;;22.1;42.5;;;;;;;-4.7;63;101080;;;;
2022/03/19 03:09:32;;;;;;;22.1;42.5;;;;;;;-4.7;63.3;101080;;;;
2022/03/19 03:19:32;;;;;;;22.1;42.5;;;;;;;-4.9;63.1;101090;;;;
2022/03/19 03:30:32;;;;;;;23.7;37.6;;;;;;;-4.6;63.2;101080;;;;
2022/03/19 03:41:32;;;;;;;23.7;37.6;;;;;;;-4.7;62.1;101080;;;;
2022/03/19 03:52:32;;;;;;;23.7;37.6;;;;;;;-5;62.8;101080;;;;
2022/03/19 04:02:32;;;;;;;20.6;34.1;;;;;;;-5.2;63.3;101070;;;;
2022/03/19 04:13:32;;;;;;;20.6;34.1;;;;;;;-5.2;63.2;101080;;;;
2022/03/19 04:23:33;;;;;;;20.6;34.1;;;;;;;-5.3;63.6;101080;;;;
2022/03/19 04:34:32;;;;;;;23.2;43.2;;;;;;;-5.3;63.4;101090;;;;
2022/03/19 04:44:32;;;;;;;23.2;43.2;;;;;;;-5.3;64.4;101090;;;;
2022/03/19 04:55:32;;;;;;;18.7;35;;;;;;;-5.3;64.9;101100;;;;
2022/03/19 05:06:32;;;;;;;18.7;35;;;;;;;-5.3;65.9;101100;;;;
2022/03/19 05:16:32;;;;;;;18.7;35;;;;;;;-4.9;64.7;101100;;;;
2022/03/19 05:26:32;;;;;;;21.4;38.7;;;;;;;-4.6;63.9;101110;;;;
2022/03/19 05:37:32;;;;;;;21.4;38.7;;;;;;;-4.4;63.4;101130;;;;
2022/03/19 05:48:32;;;;;;;21.4;38.7;;;;;;;-4.1;62.9;101140;;;;
2022/03/19 05:58:32;;;;;;;23.4;39.1;;;;;;;-3.8;62.8;101140;;;;
2022/03/19 06:08:32;;;;;;;23.4;39.1;;;;;;;-3.4;61.6;101150;;;;
2022/03/19 06:19:32;;;;;;;23.4;39.1;;;;;;;-3;61.4;101160;;;;
2022/03/19 06:29:32;;;;;;;28.2;43.3;;;;;;;-2.8;61.1;101160;;;;
2022/03/19 06:39:32;;;;;;;28.2;43.3;;;;;;;-2.4;59.9;101170;;;;
2022/03/19 06:49:32;;;;;;;28.2;43.3;;;;;;;-1.9;59.2;101160;;;;
2022/03/19 06:59:32;;;;;;;35.7;53.8;;;;;;;-1.7;57.8;101160;;;;
2022/03/19 07:10:32;;;;;;;35.7;53.8;;;;;;;-1;56.9;101160;;;;
2022/03/19 07:20:32;;;;;;;35.7;53.8;;;;;;;-0.7;55.8;101160;;;;
2022/03/19 07:31:32;;;;;;;44.1;56.7;;;;;;;-0.4;55.3;101150;;;;
2022/03/19 07:42:32;;;;;;;44.1;56.7;;;;;;;0.1;54.2;101160;;;;
2022/03/19 07:52:33;;;;;;;44.1;56.7;;;;;;;0.6;52.6;101160;;;;
2022/03/19 08:03:32;;;;;;;48.5;59.2;;;;;;;1.1;51.4;101160;;;;
2022/03/19 08:13:32;;;;;;;48.5;59.2;;;;;;;1.5;50.8;101170;;;;
2022/03/19 08:24:33;;;;;;;38.5;48.5;;;;;;;2.1;48.2;101160;;;;
2022/03/19 08:35:32;;;;;;;38.5;48.5;;;;;;;2.4;46;101160;;;;
2022/03/19 08:45:32;;;;;;;38.5;48.5;;;;;;;3.1;45.8;101160;;;;
2022/03/19 08:55:32;;;;;;;31.6;39.9;;;;;;;3.3;44.1;101170;;;;
2022/03/19 09:06:32;;;;;;;31.6;39.9;;;;;;;3.7;42.6;101160;;;;
2022/03/19 09:16:32;;;;;;;31.6;39.9;;;;;;;4.2;41.5;101150;;;;
2022/03/19 09:27:32;;;;;;;25.7;29.6;;;;;;;4.5;40.4;101160;;;;
2022/03/19 09:37:32;;;;;;;25.7;29.6;;;;;;;4.7;38.9;101150;;;;
2022/03/19 09:47:32;;;;;;;25.7;29.6;;;;;;;4.9;38.7;101160;;;;
2022/03/19 09:57:32;;;;;;;23;28.9;;;;;;;5.2;37.7;101160;;;;
2022/03/19 10:08:36;;;;;;;23;28.9;;;;;;;5.7;36.5;101150;;;;
2022/03/19 10:18:32;;;;;;;23;28.9;;;;;;;5.9;35.1;101150;;;;
2022/03/19 10:28:32;;;;;;;22.6;29.7;;;;;;;6.6;34.6;101140;;;;
2022/03/19 10:38:32;;;;;;;22.6;29.7;;;;;;;6.7;32.3;101140;;;;
2022/03/19 10:49:32;;;;;;;22.6;29.7;;;;;;;6.8;31;101140;;;;
2022/03/19 10:59:32;;;;;;;17.6;21.5;;;;;;;7.3;30.3;101130;;;;
2022/03/19 11:10:32;;;;;;;17.6;21.5;;;;;;;7.3;29;101120;;;;
2022/03/19 11:20:32;;;;;;;17.6;21.5;;;;;;;7.5;28.3;101110;;;;
2022/03/19 11:30:34;;;;;;;14.9;19.5;;;;;;;8;28.6;101100;;;;
2022/03/19 11:41:32;;;;;;;14.9;19.5;;;;;;;8;27;101090;;;;
2022/03/19 11:51:33;;;;;;;14.9;19.5;;;;;;;8.1;26.9;101090;;;;
2022/03/19 12:02:32;;;;;;;12.1;15.2;;;;;;;8.5;26.2;101080;;;;
2022/03/19 12:12:32;;;;;;;12.1;15.2;;;;;;;8.5;27.4;101070;;;;
2022/03/19 12:22:32;;;;;;;12.3;17.3;;;;;;;8.5;27.4;101070;;;;
2022/03/19 12:32:32;;;;;;;12.3;17.3;;;;;;;8.6;27.9;101070;;;;
2022/03/19 12:43:32;;;;;;;12.3;17.3;;;;;;;8.6;28.1;101060;;;;
2022/03/19 12:54:32;;;;;;;13;17.4;;;;;;;8.7;28.6;101070;;;;
2022/03/19 13:04:32;;;;;;;13;17.4;;;;;;;8.7;27.2;101050;;;;
2022/03/19 13:14:32;;;;;;;13;17.4;;;;;;;8.7;27.8;101050;;;;
2022/03/19 13:24:32;;;;;;;12.4;17.5;;;;;;;8.7;27.1;101060;;;;
2022/03/19 13:35:32;;;;;;;12.4;17.5;;;;;;;8.5;26.9;101050;;;;
2022/03/19 13:45:32;;;;;;;12.4;17.5;;;;;;;8.4;27.2;101050;;;;
2022/03/19 13:56:33;;;;;;;12.2;16.7;;;;;;;8.6;26.7;101040;;;;
2022/03/19 14:06:32;;;;;;;12.2;16.7;;;;;;;8.4;26;101050;;;;
2022/03/19 14:17:32;;;;;;;12.2;16.7;;;;;;;8.6;25.1;101040;;;;
2022/03/19 14:27:32;;;;;;;9.9;12.7;;;;;;;8.5;25.3;101050;;;;
2022/03/19 14:38:33;;;;;;;9.9;12.7;;;;;;;8.7;27;101050;;;;
2022/03/19 14:48:32;;;;;;;9.9;12.7;;;;;;;8.6;27.3;101050;;;;
2022/03/19 14:59:32;;;;;;;12.1;16.5;;;;;;;8.3;26.5;101070;;;;
2022/03/19 15:09:32;;;;;;;12.1;16.5;;;;;;;8.2;26.4;101060;;;;
2022/03/19 15:20:32;;;;;;;12.1;16.5;;;;;;;8.2;25.4;101060;;;;
2022/03/19 15:31:32;;;;;;;11.4;17.4;;;;;;;8.5;24.5;101060;;;;
2022/03/19 15:41:32;;;;;;;11.4;17.4;;;;;;;9.2;23.5;101060;;;;
2022/03/19 15:52:32;;;;;;;11.2;14.8;;;;;;;10;22.3;101060;;;;
2022/03/19 16:02:32;;;;;;;11.2;14.8;;;;;;;9.6;22.3;101070;;;;
2022/03/19 16:13:32;;;;;;;11.2;14.8;;;;;;;9.1;23.6;101080;;;;
2022/03/19 16:23:32;;;;;;;7.9;12;;;;;;;8.1;23.1;101090;;;;
2022/03/19 16:34:32;;;;;;;7.9;12;;;;;;;6.8;25.7;101100;;;;
2022/03/19 16:44:32;;;;;;;7.9;12;;;;;;;6.1;27.2;101110;;;;
2022/03/19 16:55:32;;;;;;;12.1;16.9;;;;;;;5.6;28.6;101120;;;;
2022/03/19 17:05:32;;;;;;;12.1;16.9;;;;;;;5.2;29.6;101130;;;;
2022/03/19 17:16:32;;;;;;;12.1;16.9;;;;;;;4.8;30.1;101140;;;;
2022/03/19 17:26:32;;;;;;;13.9;19.4;;;;;;;4.6;30.7;101150;;;;
2022/03/19 17:47:32;;;;;;;13.9;19.4;;;;;;;4.3;31;101170;;;;
2022/03/19 17:57:32;;;;;;;21.2;26.1;;;;;;;4.2;31.6;101180;;;;
2022/03/19 18:07:32;;;;;;;21.2;26.1;;;;;;;4.2;32.1;101180;;;;
2022/03/19 18:17:32;;;;;;;21.2;26.1;;;;;;;3.8;33.5;101180;;;;
2022/03/19 18:27:33;;;;;;;18.4;26.7;;;;;;;3.8;33.8;101180;;;;
2022/03/19 18:38:32;;;;;;;18.4;26.7;;;;;;;3.5;34.5;101180;;;;
2022/03/19 18:48:32;;;;;;;18.4;26.7;;;;;;;3.3;35.1;101180;;;;
2022/03/19 18:58:32;;;;;;;16.8;21.2;;;;;;;2.9;36;101200;;;;
2022/03/19 19:09:32;;;;;;;16.8;21.2;;;;;;;2.5;37.1;101210;;;;
2022/03/19 19:20:32;;;;;;;16.8;21.2;;;;;;;2.1;38;101220;;;;
2022/03/19 19:30:33;;;;;;;27.5;34.1;;;;;;;1.8;38.3;101230;;;;
2022/03/19 19:40:32;;;;;;;27.5;34.1;;;;;;;1.7;39.5;101240;;;;
2022/03/19 19:51:32;;;;;;;25.3;33.8;;;;;;;1.5;40;101240;;;;
2022/03/19 20:02:32;;;;;;;25.3;33.8;;;;;;;0.9;40;101240;;;;
2022/03/19 20:12:32;;;;;;;25.3;33.8;;;;;;;0.4;40.9;101240;;;;
2022/03/19 20:22:32;;;;;;;30.1;39.8;;;;;;;-0.2;41.9;101230;;;;
2022/03/19 20:32:32;;;;;;;30.1;39.8;;;;;;;-0.5;43.1;101220;;;;
2022/03/19 20:43:33;;;;;;;30.1;39.8;;;;;;;-1.1;43.9;101220;;;;
2022/03/19 20:54:33;;;;;;;35.6;50.8;;;;;;;-1.4;45.2;101220;;;;
2022/03/19 21:04:32;;;;;;;35.6;50.8;;;;;;;-1.6;48.5;101220;;;;
2022/03/19 21:15:32;;;;;;;35.6;50.8;;;;;;;-1.7;49;101220;;;;
2022/03/19 21:25:32;;;;;;;28.4;43;;;;;;;-1.8;48.5;101210;;;;
2022/03/19 21:36:32;;;;;;;28.4;43;;;;;;;-2;49.1;101230;;;;
2022/03/19 21:47:32;;;;;;;28.4;43;;;;;;;-2.1;49.5;101220;;;;
2022/03/19 21:57:32;;;;;;;31.3;46.9;;;;;;;-2.2;50.6;101220;;;;
2022/03/19 22:08:32;;;;;;;31.3;46.9;;;;;;;-2.2;50.5;101220;;;;
2022/03/19 22:18:32;;;;;;;31.3;46.9;;;;;;;-2.2;50.9;101220;;;;
2022/03/19 22:29:35;;;;;;;28.3;46.2;;;;;;;-2.4;50.9;101230;;;;
2022/03/19 22:39:32;;;;;;;28.3;46.2;;;;;;;-2.5;51.4;101230;;;;
2022/03/19 22:50:33;;;;;;;26.2;44.5;;;;;;;-2.2;52.8;101240;;;;
2022/03/19 23:00:33;;;;;;;26.2;44.5;;;;;;;-1.9;52.2;101230;;;;
2022/03/19 23:11:35;;;;;;;26.2;44.5;;;;;;;-2.1;53;101230;;;;
2022/03/19 23:21:34;;;;;;;26.8;41.5;;;;;;;-1.9;52.7;101230;;;;
2022/03/19 23:32:32;;;;;;;26.8;41.5;;;;;;;-2.2;52.5;101230;;;;
2022/03/19 23:42:32;;;;;;;26.8;41.5;;;;;;;-2.4;53.6;101220;;;;
2022/03/19 23:52:32;;;;;;;27.7;46.1;;;;;;;-2.4;54.2;101210;;;;
